sensor_id;sensor_type;location;lat;lon;timestamp;temperature;humidity
64817;DHT22;69411;45.656;11.740;2024-03-08T00:00:06;9.40;77.40
64817;DHT22;69411;45.656;11.740;2024-03-08T00:02:37;9.50;77.50
64817;DHT22;69411;45.656;11.740;2024-03-08T00:05:05;9.40;77.00
64817;DHT22;69411;45.656;11.740;2024-03-08T00:07:31;9.30;76.80
64817;DHT22;69411;45.656;11.740;2024-03-08T00:09:57;9.40;76.80
64817;DHT22;69411;45.656;11.740;2024-03-08T00:12:23;9.40;76.90
64817;DHT22;69411;45.656;11.740;2024-03-08T00:14:51;9.40;76.90
64817;DHT22;69411;45.656;11.740;2024-03-08T00:17:17;9.40;77.00
64817;DHT22;69411;45.656;11.740;2024-03-08T00:19:43;9.40;77.10
64817;DHT22;69411;45.656;11.740;2024-03-08T00:22:09;9.30;77.10
64817;DHT22;69411;45.656;11.740;2024-03-08T00:24:37;9.30;77.00
64817;DHT22;69411;45.656;11.740;2024-03-08T00:27:03;9.40;77.20
64817;DHT22;69411;45.656;11.740;2024-03-08T00:29:30;9.40;77.30
64817;DHT22;69411;45.656;11.740;2024-03-08T00:31:56;9.30;77.20
64817;DHT22;69411;45.656;11.740;2024-03-08T00:34:23;9.30;77.20
64817;DHT22;69411;45.656;11.740;2024-03-08T00:36:49;9.30;77.30
64817;DHT22;69411;45.656;11.740;2024-03-08T00:39:18;9.40;77.20
64817;DHT22;69411;45.656;11.740;2024-03-08T00:41:46;9.30;77.10
64817;DHT22;69411;45.656;11.740;2024-03-08T00:44:13;9.30;77.30
64817;DHT22;69411;45.656;11.740;2024-03-08T00:46:39;9.30;77.10
64817;DHT22;69411;45.656;11.740;2024-03-08T00:49:05;9.40;77.20
64817;DHT22;69411;45.656;11.740;2024-03-08T00:51:32;9.40;77.30
64817;DHT22;69411;45.656;11.740;2024-03-08T00:53:58;9.40;77.50
64817;DHT22;69411;45.656;11.740;2024-03-08T00:56:24;9.30;77.40
64817;DHT22;69411;45.656;11.740;2024-03-08T00:58:50;9.30;77.50
64817;DHT22;69411;45.656;11.740;2024-03-08T01:01:18;9.20;77.90
64817;DHT22;69411;45.656;11.740;2024-03-08T01:03:45;9.30;77.90
64817;DHT22;69411;45.656;11.740;2024-03-08T01:06:11;9.30;77.90
64817;DHT22;69411;45.656;11.740;2024-03-08T01:08:37;9.30;77.90
64817;DHT22;69411;45.656;11.740;2024-03-08T01:11:08;9.20;77.60
64817;DHT22;69411;45.656;11.740;2024-03-08T01:13:37;9.20;77.50
64817;DHT22;69411;45.656;11.740;2024-03-08T01:16:03;9.20;77.80
64817;DHT22;69411;45.656;11.740;2024-03-08T01:18:29;9.20;77.70
64817;DHT22;69411;45.656;11.740;2024-03-08T01:20:55;9.20;77.90
64817;DHT22;69411;45.656;11.740;2024-03-08T01:23:21;9.20;78.10
64817;DHT22;69411;45.656;11.740;2024-03-08T01:25:47;9.20;77.90
64817;DHT22;69411;45.656;11.740;2024-03-08T01:28:18;9.10;77.40
64817;DHT22;69411;45.656;11.740;2024-03-08T01:30:43;9.10;77.50
64817;DHT22;69411;45.656;11.740;2024-03-08T01:33:11;9.10;77.70
64817;DHT22;69411;45.656;11.740;2024-03-08T01:35:37;9.10;77.70
64817;DHT22;69411;45.656;11.740;2024-03-08T01:38:03;9.10;77.60
64817;DHT22;69411;45.656;11.740;2024-03-08T01:40:30;9.10;77.30
64817;DHT22;69411;45.656;11.740;2024-03-08T01:42:56;9.00;77.20
64817;DHT22;69411;45.656;11.740;2024-03-08T01:45:22;9.00;77.20
64817;DHT22;69411;45.656;11.740;2024-03-08T01:47:48;9.00;77.30
64817;DHT22;69411;45.656;11.740;2024-03-08T01:50:14;8.90;77.40
64817;DHT22;69411;45.656;11.740;2024-03-08T01:52:42;8.90;77.50
64817;DHT22;69411;45.656;11.740;2024-03-08T01:55:08;8.90;77.40
64817;DHT22;69411;45.656;11.740;2024-03-08T01:57:35;8.90;77.60
64817;DHT22;69411;45.656;11.740;2024-03-08T02:00:02;8.90;77.70
64817;DHT22;69411;45.656;11.740;2024-03-08T02:02:33;8.90;77.80
64817;DHT22;69411;45.656;11.740;2024-03-08T02:05:03;8.90;77.50
64817;DHT22;69411;45.656;11.740;2024-03-08T02:07:30;8.90;77.60
64817;DHT22;69411;45.656;11.740;2024-03-08T02:09:57;8.90;77.60
64817;DHT22;69411;45.656;11.740;2024-03-08T02:12:23;8.90;77.60
64817;DHT22;69411;45.656;11.740;2024-03-08T02:14:49;8.90;77.50
64817;DHT22;69411;45.656;11.740;2024-03-08T02:17:15;8.90;77.60
64817;DHT22;69411;45.656;11.740;2024-03-08T02:19:41;8.90;77.40
64817;DHT22;69411;45.656;11.740;2024-03-08T02:22:07;8.80;77.30
64817;DHT22;69411;45.656;11.740;2024-03-08T02:24:34;8.90;77.00
64817;DHT22;69411;45.656;11.740;2024-03-08T02:27:00;8.90;76.90
64817;DHT22;69411;45.656;11.740;2024-03-08T02:29:26;8.90;76.90
64817;DHT22;69411;45.656;11.740;2024-03-08T02:31:52;8.90;76.50
64817;DHT22;69411;45.656;11.740;2024-03-08T02:34:18;8.90;76.50
64817;DHT22;69411;45.656;11.740;2024-03-08T02:36:44;8.90;76.50
64817;DHT22;69411;45.656;11.740;2024-03-08T02:39:10;8.90;75.90
64817;DHT22;69411;45.656;11.740;2024-03-08T02:41:36;8.90;76.20
64817;DHT22;69411;45.656;11.740;2024-03-08T02:44:02;8.90;76.20
64817;DHT22;69411;45.656;11.740;2024-03-08T02:46:30;8.90;76.30
64817;DHT22;69411;45.656;11.740;2024-03-08T02:48:56;8.90;76.40
64817;DHT22;69411;45.656;11.740;2024-03-08T02:51:22;8.90;75.90
64817;DHT22;69411;45.656;11.740;2024-03-08T02:53:48;8.90;75.70
64817;DHT22;69411;45.656;11.740;2024-03-08T02:56:17;8.90;75.70
64817;DHT22;69411;45.656;11.740;2024-03-08T02:58:43;8.90;75.40
64817;DHT22;69411;45.656;11.740;2024-03-08T03:01:15;8.90;75.40
64817;DHT22;69411;45.656;11.740;2024-03-08T03:03:41;8.90;75.30
64817;DHT22;69411;45.656;11.740;2024-03-08T03:06:08;8.90;75.50
64817;DHT22;69411;45.656;11.740;2024-03-08T03:08:34;8.90;75.20
64817;DHT22;69411;45.656;11.740;2024-03-08T03:11:00;8.90;75.20
64817;DHT22;69411;45.656;11.740;2024-03-08T03:13:26;8.90;75.50
64817;DHT22;69411;45.656;11.740;2024-03-08T03:15:52;8.90;75.70
64817;DHT22;69411;45.656;11.740;2024-03-08T03:18:18;8.90;75.60
64817;DHT22;69411;45.656;11.740;2024-03-08T03:20:47;8.90;75.80
64817;DHT22;69411;45.656;11.740;2024-03-08T03:23:13;8.90;75.90
64817;DHT22;69411;45.656;11.740;2024-03-08T03:25:40;8.90;75.90
64817;DHT22;69411;45.656;11.740;2024-03-08T03:28:07;8.90;76.30
64817;DHT22;69411;45.656;11.740;2024-03-08T03:30:33;8.80;76.30
64817;DHT22;69411;45.656;11.740;2024-03-08T03:33:00;8.90;76.20
64817;DHT22;69411;45.656;11.740;2024-03-08T03:35:27;8.80;76.00
64817;DHT22;69411;45.656;11.740;2024-03-08T03:37:53;8.80;76.20
64817;DHT22;69411;45.656;11.740;2024-03-08T03:40:32;8.80;76.50
64817;DHT22;69411;45.656;11.740;2024-03-08T03:42:58;8.70;76.40
64817;DHT22;69411;45.656;11.740;2024-03-08T03:45:24;8.70;76.70
64817;DHT22;69411;45.656;11.740;2024-03-08T03:47:50;8.70;76.80
64817;DHT22;69411;45.656;11.740;2024-03-08T03:50:18;8.60;76.80
64817;DHT22;69411;45.656;11.740;2024-03-08T03:52:45;8.60;77.10
64817;DHT22;69411;45.656;11.740;2024-03-08T03:55:12;8.50;77.10
64817;DHT22;69411;45.656;11.740;2024-03-08T03:57:39;8.50;77.20
64817;DHT22;69411;45.656;11.740;2024-03-08T04:00:06;8.50;77.40
64817;DHT22;69411;45.656;11.740;2024-03-08T04:02:39;8.40;76.80
64817;DHT22;69411;45.656;11.740;2024-03-08T04:05:06;8.40;77.10
64817;DHT22;69411;45.656;11.740;2024-03-08T04:07:33;8.40;76.90
64817;DHT22;69411;45.656;11.740;2024-03-08T04:10:03;8.40;76.50
64817;DHT22;69411;45.656;11.740;2024-03-08T04:12:29;8.30;76.80
64817;DHT22;69411;45.656;11.740;2024-03-08T04:14:55;8.30;76.60
64817;DHT22;69411;45.656;11.740;2024-03-08T04:17:22;8.20;76.90
64817;DHT22;69411;45.656;11.740;2024-03-08T04:19:49;8.10;76.50
64817;DHT22;69411;45.656;11.740;2024-03-08T04:22:15;8.10;76.80
64817;DHT22;69411;45.656;11.740;2024-03-08T04:24:44;8.10;77.10
64817;DHT22;69411;45.656;11.740;2024-03-08T04:27:10;8.10;77.00
64817;DHT22;69411;45.656;11.740;2024-03-08T04:29:36;8.10;77.00
64817;DHT22;69411;45.656;11.740;2024-03-08T04:32:03;8.10;76.90
64817;DHT22;69411;45.656;11.740;2024-03-08T04:34:30;8.00;76.90
64817;DHT22;69411;45.656;11.740;2024-03-08T04:37:00;8.00;77.20
64817;DHT22;69411;45.656;11.740;2024-03-08T04:39:25;8.00;77.20
64817;DHT22;69411;45.656;11.740;2024-03-08T04:41:55;8.00;77.10
64817;DHT22;69411;45.656;11.740;2024-03-08T04:44:23;8.00;76.90
64817;DHT22;69411;45.656;11.740;2024-03-08T04:46:50;8.00;77.10
64817;DHT22;69411;45.656;11.740;2024-03-08T04:49:16;8.00;77.10
64817;DHT22;69411;45.656;11.740;2024-03-08T04:51:42;8.00;77.50
64817;DHT22;69411;45.656;11.740;2024-03-08T04:54:10;8.00;77.40
64817;DHT22;69411;45.656;11.740;2024-03-08T04:56:36;8.00;77.90
64817;DHT22;69411;45.656;11.740;2024-03-08T04:59:02;8.00;78.00
64817;DHT22;69411;45.656;11.740;2024-03-08T05:01:28;8.10;78.00
64817;DHT22;69411;45.656;11.740;2024-03-08T05:03:54;8.10;78.20
64817;DHT22;69411;45.656;11.740;2024-03-08T05:06:21;8.10;78.40
64817;DHT22;69411;45.656;11.740;2024-03-08T05:08:47;8.10;78.40
64817;DHT22;69411;45.656;11.740;2024-03-08T05:11:13;8.20;78.50
64817;DHT22;69411;45.656;11.740;2024-03-08T05:13:40;8.20;78.50
64817;DHT22;69411;45.656;11.740;2024-03-08T05:16:06;8.20;78.20
64817;DHT22;69411;45.656;11.740;2024-03-08T05:18:33;8.20;78.30
64817;DHT22;69411;45.656;11.740;2024-03-08T05:21:00;8.30;78.20
64817;DHT22;69411;45.656;11.740;2024-03-08T05:23:26;8.30;78.20
64817;DHT22;69411;45.656;11.740;2024-03-08T05:25:51;8.40;78.50
64817;DHT22;69411;45.656;11.740;2024-03-08T05:28:17;8.40;78.60
64817;DHT22;69411;45.656;11.740;2024-03-08T05:30:43;8.40;78.60
64817;DHT22;69411;45.656;11.740;2024-03-08T05:33:09;8.40;78.50
64817;DHT22;69411;45.656;11.740;2024-03-08T05:35:36;8.40;78.60
64817;DHT22;69411;45.656;11.740;2024-03-08T05:38:02;8.40;78.50
64817;DHT22;69411;45.656;11.740;2024-03-08T05:40:28;8.40;78.50
64817;DHT22;69411;45.656;11.740;2024-03-08T05:42:59;8.40;78.50
64817;DHT22;69411;45.656;11.740;2024-03-08T05:45:26;8.40;78.40
64817;DHT22;69411;45.656;11.740;2024-03-08T05:47:52;8.40;78.50
64817;DHT22;69411;45.656;11.740;2024-03-08T05:50:18;8.40;78.60
64817;DHT22;69411;45.656;11.740;2024-03-08T05:52:45;8.40;78.50
64817;DHT22;69411;45.656;11.740;2024-03-08T05:55:13;8.40;78.70
64817;DHT22;69411;45.656;11.740;2024-03-08T05:57:42;8.40;78.50
64817;DHT22;69411;45.656;11.740;2024-03-08T06:00:10;8.40;78.50
64817;DHT22;69411;45.656;11.740;2024-03-08T06:02:41;8.40;78.50
64817;DHT22;69411;45.656;11.740;2024-03-08T06:05:10;8.30;78.50
64817;DHT22;69411;45.656;11.740;2024-03-08T06:07:37;8.30;78.40
64817;DHT22;69411;45.656;11.740;2024-03-08T06:10:08;8.30;78.40
64817;DHT22;69411;45.656;11.740;2024-03-08T06:12:36;8.20;78.80
64817;DHT22;69411;45.656;11.740;2024-03-08T06:15:09;8.20;78.70
64817;DHT22;69411;45.656;11.740;2024-03-08T06:17:36;8.20;78.70
64817;DHT22;69411;45.656;11.740;2024-03-08T06:20:02;8.10;78.90
64817;DHT22;69411;45.656;11.740;2024-03-08T06:22:29;8.10;78.80
64817;DHT22;69411;45.656;11.740;2024-03-08T06:24:56;8.10;78.90
64817;DHT22;69411;45.656;11.740;2024-03-08T06:27:22;8.10;78.90
64817;DHT22;69411;45.656;11.740;2024-03-08T06:29:48;8.00;79.00
64817;DHT22;69411;45.656;11.740;2024-03-08T06:32:14;8.10;79.20
64817;DHT22;69411;45.656;11.740;2024-03-08T06:34:41;8.00;79.10
64817;DHT22;69411;45.656;11.740;2024-03-08T06:37:07;8.00;79.50
64817;DHT22;69411;45.656;11.740;2024-03-08T06:39:33;8.00;79.40
64817;DHT22;69411;45.656;11.740;2024-03-08T06:42:01;8.00;79.50
64817;DHT22;69411;45.656;11.740;2024-03-08T06:44:27;8.00;79.50
64817;DHT22;69411;45.656;11.740;2024-03-08T06:46:53;8.00;79.60
64817;DHT22;69411;45.656;11.740;2024-03-08T06:49:18;8.00;79.20
64817;DHT22;69411;45.656;11.740;2024-03-08T06:51:45;8.00;79.30
64817;DHT22;69411;45.656;11.740;2024-03-08T06:54:11;8.00;79.40
64817;DHT22;69411;45.656;11.740;2024-03-08T06:56:36;8.00;79.20
64817;DHT22;69411;45.656;11.740;2024-03-08T06:59:02;8.00;79.20
64817;DHT22;69411;45.656;11.740;2024-03-08T07:01:32;8.10;79.50
64817;DHT22;69411;45.656;11.740;2024-03-08T07:04:00;8.10;79.40
64817;DHT22;69411;45.656;11.740;2024-03-08T07:06:31;8.10;79.50
64817;DHT22;69411;45.656;11.740;2024-03-08T07:08:59;8.10;79.40
64817;DHT22;69411;45.656;11.740;2024-03-08T07:11:27;8.20;79.30
64817;DHT22;69411;45.656;11.740;2024-03-08T07:13:53;8.10;79.30
64817;DHT22;69411;45.656;11.740;2024-03-08T07:16:19;8.10;79.40
64817;DHT22;69411;45.656;11.740;2024-03-08T07:18:47;8.10;79.30
64817;DHT22;69411;45.656;11.740;2024-03-08T07:21:13;8.20;79.30
64817;DHT22;69411;45.656;11.740;2024-03-08T07:26:08;8.10;78.80
64817;DHT22;69411;45.656;11.740;2024-03-08T07:28:35;8.10;78.30
64817;DHT22;69411;45.656;11.740;2024-03-08T07:31:01;8.00;78.20
64817;DHT22;69411;45.656;11.740;2024-03-08T07:33:38;8.00;78.40
64817;DHT22;69411;45.656;11.740;2024-03-08T07:36:04;8.00;78.20
64817;DHT22;69411;45.656;11.740;2024-03-08T07:38:30;8.10;77.40
64817;DHT22;69411;45.656;11.740;2024-03-08T07:40:56;8.00;77.40
64817;DHT22;69411;45.656;11.740;2024-03-08T07:43:22;8.00;77.50
64817;DHT22;69411;45.656;11.740;2024-03-08T07:45:48;7.90;77.40
64817;DHT22;69411;45.656;11.740;2024-03-08T07:48:14;7.90;77.40
64817;DHT22;69411;45.656;11.740;2024-03-08T07:50:42;7.90;77.00
64817;DHT22;69411;45.656;11.740;2024-03-08T07:53:08;7.90;76.90
64817;DHT22;69411;45.656;11.740;2024-03-08T07:55:35;7.90;77.20
64817;DHT22;69411;45.656;11.740;2024-03-08T07:58:03;7.90;77.50
64817;DHT22;69411;45.656;11.740;2024-03-08T08:00:30;7.90;77.10
64817;DHT22;69411;45.656;11.740;2024-03-08T08:02:57;7.90;77.40
64817;DHT22;69411;45.656;11.740;2024-03-08T08:05:23;7.80;77.30
64817;DHT22;69411;45.656;11.740;2024-03-08T08:07:49;7.80;77.30
64817;DHT22;69411;45.656;11.740;2024-03-08T08:10:16;7.80;76.70
64817;DHT22;69411;45.656;11.740;2024-03-08T08:12:48;7.80;76.60
64817;DHT22;69411;45.656;11.740;2024-03-08T08:15:14;7.80;76.30
64817;DHT22;69411;45.656;11.740;2024-03-08T08:17:46;7.70;76.30
64817;DHT22;69411;45.656;11.740;2024-03-08T08:20:13;7.70;76.50
64817;DHT22;69411;45.656;11.740;2024-03-08T08:22:40;7.70;76.60
64817;DHT22;69411;45.656;11.740;2024-03-08T08:25:07;7.60;76.50
64817;DHT22;69411;45.656;11.740;2024-03-08T08:27:34;7.60;77.20
64817;DHT22;69411;45.656;11.740;2024-03-08T08:30:00;7.50;76.90
64817;DHT22;69411;45.656;11.740;2024-03-08T08:32:26;7.60;76.90
64817;DHT22;69411;45.656;11.740;2024-03-08T08:34:52;7.60;77.40
64817;DHT22;69411;45.656;11.740;2024-03-08T08:37:18;7.60;77.50
64817;DHT22;69411;45.656;11.740;2024-03-08T08:39:44;7.60;77.80
64817;DHT22;69411;45.656;11.740;2024-03-08T08:42:10;7.60;78.50
64817;DHT22;69411;45.656;11.740;2024-03-08T08:44:36;7.60;78.50
64817;DHT22;69411;45.656;11.740;2024-03-08T08:47:02;7.60;78.50
64817;DHT22;69411;45.656;11.740;2024-03-08T08:49:31;7.60;77.90
64817;DHT22;69411;45.656;11.740;2024-03-08T08:51:57;7.60;77.70
64817;DHT22;69411;45.656;11.740;2024-03-08T08:54:26;7.60;77.60
64817;DHT22;69411;45.656;11.740;2024-03-08T08:56:53;7.60;77.80
64817;DHT22;69411;45.656;11.740;2024-03-08T08:59:19;7.60;77.30
64817;DHT22;69411;45.656;11.740;2024-03-08T09:01:46;7.60;77.60
64817;DHT22;69411;45.656;11.740;2024-03-08T09:04:16;7.50;77.40
64817;DHT22;69411;45.656;11.740;2024-03-08T09:06:42;7.50;77.50
64817;DHT22;69411;45.656;11.740;2024-03-08T09:09:08;7.50;77.90
64817;DHT22;69411;45.656;11.740;2024-03-08T09:11:35;7.50;77.90
64817;DHT22;69411;45.656;11.740;2024-03-08T09:14:01;7.50;77.90
64817;DHT22;69411;45.656;11.740;2024-03-08T09:16:27;7.50;77.80
64817;DHT22;69411;45.656;11.740;2024-03-08T09:18:53;7.50;77.90
64817;DHT22;69411;45.656;11.740;2024-03-08T09:21:19;7.40;77.30
64817;DHT22;69411;45.656;11.740;2024-03-08T09:23:45;7.50;77.20
64817;DHT22;69411;45.656;11.740;2024-03-08T09:26:11;7.50;77.30
64817;DHT22;69411;45.656;11.740;2024-03-08T09:28:38;7.50;77.30
64817;DHT22;69411;45.656;11.740;2024-03-08T09:31:04;7.50;77.40
64817;DHT22;69411;45.656;11.740;2024-03-08T09:33:31;7.40;76.70
64817;DHT22;69411;45.656;11.740;2024-03-08T09:35:57;7.40;77.00
64817;DHT22;69411;45.656;11.740;2024-03-08T09:38:24;7.50;77.00
64817;DHT22;69411;45.656;11.740;2024-03-08T09:40:52;7.40;76.80
64817;DHT22;69411;45.656;11.740;2024-03-08T09:43:19;7.40;77.20
64817;DHT22;69411;45.656;11.740;2024-03-08T09:45:45;7.40;77.30
64817;DHT22;69411;45.656;11.740;2024-03-08T09:48:16;7.40;77.70
64817;DHT22;69411;45.656;11.740;2024-03-08T09:50:44;7.50;77.70
64817;DHT22;69411;45.656;11.740;2024-03-08T09:53:13;7.60;77.50
64817;DHT22;69411;45.656;11.740;2024-03-08T09:55:39;7.60;77.70
64817;DHT22;69411;45.656;11.740;2024-03-08T09:58:12;7.60;77.40
64817;DHT22;69411;45.656;11.740;2024-03-08T10:00:54;7.60;77.10
64817;DHT22;69411;45.656;11.740;2024-03-08T10:03:23;7.60;76.50
64817;DHT22;69411;45.656;11.740;2024-03-08T10:05:49;7.70;77.40
64817;DHT22;69411;45.656;11.740;2024-03-08T10:08:15;7.60;77.10
64817;DHT22;69411;45.656;11.740;2024-03-08T10:10:41;7.60;76.80
64817;DHT22;69411;45.656;11.740;2024-03-08T10:13:09;7.60;76.70
64817;DHT22;69411;45.656;11.740;2024-03-08T10:15:36;7.60;77.00
64817;DHT22;69411;45.656;11.740;2024-03-08T10:18:04;7.60;77.00
64817;DHT22;69411;45.656;11.740;2024-03-08T10:20:33;7.70;77.40
64817;DHT22;69411;45.656;11.740;2024-03-08T10:23:03;7.70;77.10
64817;DHT22;69411;45.656;11.740;2024-03-08T10:25:34;7.80;76.30
64817;DHT22;69411;45.656;11.740;2024-03-08T10:28:03;7.80;76.30
64817;DHT22;69411;45.656;11.740;2024-03-08T10:30:30;7.80;76.10
64817;DHT22;69411;45.656;11.740;2024-03-08T10:32:56;7.80;76.20
64817;DHT22;69411;45.656;11.740;2024-03-08T10:35:22;7.80;76.30
64817;DHT22;69411;45.656;11.740;2024-03-08T10:37:50;7.80;76.00
64817;DHT22;69411;45.656;11.740;2024-03-08T10:40:28;7.90;76.30
64817;DHT22;69411;45.656;11.740;2024-03-08T10:42:56;7.90;75.70
64817;DHT22;69411;45.656;11.740;2024-03-08T10:48:17;7.90;75.60
64817;DHT22;69411;45.656;11.740;2024-03-08T10:50:49;7.90;74.90
64817;DHT22;69411;45.656;11.740;2024-03-08T10:53:18;7.80;75.00
64817;DHT22;69411;45.656;11.740;2024-03-08T10:55:47;7.80;75.50
64817;DHT22;69411;45.656;11.740;2024-03-08T10:58:13;7.80;75.50
64817;DHT22;69411;45.656;11.740;2024-03-08T11:00:40;7.80;74.70
64817;DHT22;69411;45.656;11.740;2024-03-08T11:03:07;7.80;75.00
64817;DHT22;69411;45.656;11.740;2024-03-08T11:05:40;7.80;75.20
64817;DHT22;69411;45.656;11.740;2024-03-08T11:08:18;7.80;75.10
64817;DHT22;69411;45.656;11.740;2024-03-08T11:10:51;7.80;74.90
64817;DHT22;69411;45.656;11.740;2024-03-08T11:13:39;7.80;75.30
64817;DHT22;69411;45.656;11.740;2024-03-08T11:18:59;7.80;75.50
64817;DHT22;69411;45.656;11.740;2024-03-08T11:21:34;7.90;76.50
64817;DHT22;69411;45.656;11.740;2024-03-08T11:24:13;7.90;76.00
64817;DHT22;69411;45.656;11.740;2024-03-08T11:26:40;7.90;76.10
64817;DHT22;69411;45.656;11.740;2024-03-08T11:32:12;7.90;76.20
64817;DHT22;69411;45.656;11.740;2024-03-08T11:34:41;7.90;75.60
64817;DHT22;69411;45.656;11.740;2024-03-08T11:37:16;7.90;76.10
64817;DHT22;69411;45.656;11.740;2024-03-08T11:40:01;7.90;76.10
64817;DHT22;69411;45.656;11.740;2024-03-08T11:42:30;8.00;76.10
64817;DHT22;69411;45.656;11.740;2024-03-08T11:44:56;7.90;76.00
64817;DHT22;69411;45.656;11.740;2024-03-08T11:47:23;7.90;76.60
64817;DHT22;69411;45.656;11.740;2024-03-08T11:49:51;7.90;76.80
64817;DHT22;69411;45.656;11.740;2024-03-08T11:52:18;7.90;77.50
64817;DHT22;69411;45.656;11.740;2024-03-08T11:54:54;7.90;77.60
64817;DHT22;69411;45.656;11.740;2024-03-08T11:57:22;7.90;78.30
64817;DHT22;69411;45.656;11.740;2024-03-08T11:59:52;7.70;78.60
64817;DHT22;69411;45.656;11.740;2024-03-08T12:02:19;7.60;79.20
64817;DHT22;69411;45.656;11.740;2024-03-08T12:04:45;7.60;79.60
64817;DHT22;69411;45.656;11.740;2024-03-08T12:07:14;7.70;79.80
64817;DHT22;69411;45.656;11.740;2024-03-08T12:09:44;7.70;79.90
64817;DHT22;69411;45.656;11.740;2024-03-08T12:12:32;7.80;79.90
64817;DHT22;69411;45.656;11.740;2024-03-08T12:14:58;7.80;79.90
64817;DHT22;69411;45.656;11.740;2024-03-08T12:17:24;7.80;79.90
64817;DHT22;69411;45.656;11.740;2024-03-08T12:19:50;7.90;79.70
64817;DHT22;69411;45.656;11.740;2024-03-08T12:22:16;7.90;79.60
64817;DHT22;69411;45.656;11.740;2024-03-08T12:24:42;7.90;79.10
64817;DHT22;69411;45.656;11.740;2024-03-08T12:27:20;7.90;79.20
64817;DHT22;69411;45.656;11.740;2024-03-08T12:29:46;7.90;79.00
64817;DHT22;69411;45.656;11.740;2024-03-08T12:32:12;7.90;79.20
64817;DHT22;69411;45.656;11.740;2024-03-08T12:34:38;7.90;78.90
64817;DHT22;69411;45.656;11.740;2024-03-08T12:37:05;7.90;79.30
64817;DHT22;69411;45.656;11.740;2024-03-08T12:39:32;8.00;79.50
64817;DHT22;69411;45.656;11.740;2024-03-08T12:41:59;8.10;79.20
64817;DHT22;69411;45.656;11.740;2024-03-08T12:44:25;8.10;79.20
64817;DHT22;69411;45.656;11.740;2024-03-08T12:46:51;8.10;78.70
64817;DHT22;69411;45.656;11.740;2024-03-08T12:49:19;8.10;78.80
64817;DHT22;69411;45.656;11.740;2024-03-08T12:51:48;8.10;78.70
64817;DHT22;69411;45.656;11.740;2024-03-08T12:54:14;8.00;78.50
64817;DHT22;69411;45.656;11.740;2024-03-08T12:56:40;8.10;78.70
64817;DHT22;69411;45.656;11.740;2024-03-08T12:59:09;8.10;78.60
64817;DHT22;69411;45.656;11.740;2024-03-08T13:01:36;8.20;78.40
64817;DHT22;69411;45.656;11.740;2024-03-08T13:04:05;8.20;78.20
64817;DHT22;69411;45.656;11.740;2024-03-08T13:06:36;8.20;77.90
64817;DHT22;69411;45.656;11.740;2024-03-08T13:09:02;8.20;77.60
64817;DHT22;69411;45.656;11.740;2024-03-08T13:11:32;8.20;77.50
64817;DHT22;69411;45.656;11.740;2024-03-08T13:14:03;8.20;77.70
64817;DHT22;69411;45.656;11.740;2024-03-08T13:16:31;8.20;77.20
64817;DHT22;69411;45.656;11.740;2024-03-08T13:18:57;8.20;76.80
64817;DHT22;69411;45.656;11.740;2024-03-08T13:21:23;8.30;77.20
64817;DHT22;69411;45.656;11.740;2024-03-08T13:24:53;8.30;77.40
64817;DHT22;69411;45.656;11.740;2024-03-08T13:27:42;8.30;76.90
64817;DHT22;69411;45.656;11.740;2024-03-08T13:30:14;8.40;76.90
64817;DHT22;69411;45.656;11.740;2024-03-08T13:32:44;8.40;76.30
64817;DHT22;69411;45.656;11.740;2024-03-08T13:35:11;8.40;76.20
64817;DHT22;69411;45.656;11.740;2024-03-08T13:37:40;8.40;76.70
64817;DHT22;69411;45.656;11.740;2024-03-08T13:40:07;8.40;76.60
64817;DHT22;69411;45.656;11.740;2024-03-08T13:42:42;8.40;76.40
64817;DHT22;69411;45.656;11.740;2024-03-08T13:45:09;8.40;76.00
64817;DHT22;69411;45.656;11.740;2024-03-08T13:47:40;8.40;76.00
64817;DHT22;69411;45.656;11.740;2024-03-08T13:50:08;8.40;76.40
64817;DHT22;69411;45.656;11.740;2024-03-08T13:52:38;8.50;76.50
64817;DHT22;69411;45.656;11.740;2024-03-08T13:55:05;8.50;76.30
64817;DHT22;69411;45.656;11.740;2024-03-08T13:57:32;8.50;76.10
64817;DHT22;69411;45.656;11.740;2024-03-08T13:59:58;8.50;75.80
64817;DHT22;69411;45.656;11.740;2024-03-08T14:02:24;8.50;76.00
64817;DHT22;69411;45.656;11.740;2024-03-08T14:04:54;8.60;76.30
64817;DHT22;69411;45.656;11.740;2024-03-08T14:07:21;8.50;75.90
64817;DHT22;69411;45.656;11.740;2024-03-08T14:09:52;8.60;75.80
64817;DHT22;69411;45.656;11.740;2024-03-08T14:12:19;8.50;74.90
64817;DHT22;69411;45.656;11.740;2024-03-08T14:14:45;8.50;75.20
64817;DHT22;69411;45.656;11.740;2024-03-08T14:20:14;8.50;74.90
64817;DHT22;69411;45.656;11.740;2024-03-08T14:22:54;8.50;74.50
64817;DHT22;69411;45.656;11.740;2024-03-08T14:25:21;8.50;74.80
64817;DHT22;69411;45.656;11.740;2024-03-08T14:27:50;8.50;75.70
64817;DHT22;69411;45.656;11.740;2024-03-08T14:30:19;8.60;75.10
64817;DHT22;69411;45.656;11.740;2024-03-08T14:33:05;8.50;74.80
64817;DHT22;69411;45.656;11.740;2024-03-08T14:35:38;8.50;74.90
64817;DHT22;69411;45.656;11.740;2024-03-08T14:40:29;8.60;74.70
64817;DHT22;69411;45.656;11.740;2024-03-08T14:42:56;8.60;75.30
64817;DHT22;69411;45.656;11.740;2024-03-08T14:45:22;8.60;74.90
64817;DHT22;69411;45.656;11.740;2024-03-08T14:47:50;8.60;75.40
64817;DHT22;69411;45.656;11.740;2024-03-08T14:50:19;8.60;74.80
64817;DHT22;69411;45.656;11.740;2024-03-08T14:52:45;8.50;75.10
64817;DHT22;69411;45.656;11.740;2024-03-08T14:55:18;8.50;75.10
64817;DHT22;69411;45.656;11.740;2024-03-08T14:57:49;8.50;74.90
64817;DHT22;69411;45.656;11.740;2024-03-08T15:00:17;8.50;75.20
64817;DHT22;69411;45.656;11.740;2024-03-08T15:02:55;8.50;75.90
64817;DHT22;69411;45.656;11.740;2024-03-08T15:05:25;8.50;75.50
64817;DHT22;69411;45.656;11.740;2024-03-08T15:07:58;8.50;75.80
64817;DHT22;69411;45.656;11.740;2024-03-08T15:10:35;8.50;75.70
64817;DHT22;69411;45.656;11.740;2024-03-08T15:13:01;8.50;75.70
64817;DHT22;69411;45.656;11.740;2024-03-08T15:15:33;8.60;75.80
64817;DHT22;69411;45.656;11.740;2024-03-08T15:17:59;8.60;75.30
64817;DHT22;69411;45.656;11.740;2024-03-08T15:20:25;8.60;75.50
64817;DHT22;69411;45.656;11.740;2024-03-08T15:22:55;8.60;75.80
64817;DHT22;69411;45.656;11.740;2024-03-08T15:25:24;8.50;75.50
64817;DHT22;69411;45.656;11.740;2024-03-08T15:27:53;8.50;75.90
64817;DHT22;69411;45.656;11.740;2024-03-08T15:30:22;8.50;76.00
64817;DHT22;69411;45.656;11.740;2024-03-08T15:32:52;8.50;76.30
64817;DHT22;69411;45.656;11.740;2024-03-08T15:35:26;8.40;76.00
64817;DHT22;69411;45.656;11.740;2024-03-08T15:37:55;8.40;75.60
64817;DHT22;69411;45.656;11.740;2024-03-08T15:40:24;8.40;75.70
64817;DHT22;69411;45.656;11.740;2024-03-08T15:42:55;8.30;76.00
64817;DHT22;69411;45.656;11.740;2024-03-08T15:45:22;8.30;76.40
64817;DHT22;69411;45.656;11.740;2024-03-08T15:47:55;8.30;76.50
64817;DHT22;69411;45.656;11.740;2024-03-08T15:50:21;8.30;75.70